createdAt,value
2018-02-19T00:00:38.691Z,33.17
2018-02-19T00:03:07.012Z,32.78
2018-02-19T00:05:35.346Z,38.82
2018-02-19T00:08:03.676Z,33.25
2018-02-19T00:10:32.011Z,32.18
2018-02-19T00:13:00.330Z,34.82
2018-02-19T00:15:28.672Z,30.15
2018-02-19T00:17:57.011Z,39.70
2018-02-19T00:20:25.356Z,40.25
2018-02-19T00:22:53.675Z,35.05
2018-02-19T00:25:22.408Z,47.83
2018-02-19T00:27:50.723Z,34.30
2018-02-19T00:30:19.063Z,34.17
2018-02-19T00:32:47.375Z,34.57
2018-02-19T00:35:15.719Z,31.83
2018-02-19T00:37:44.038Z,40.23
2018-02-19T00:40:12.375Z,41.13
2018-02-19T00:42:40.685Z,29.53
2018-02-19T00:45:09.023Z,30.75
2018-02-19T00:47:37.343Z,33.58
2018-02-19T00:50:05.675Z,28.38
2018-02-19T00:52:34.011Z,33.97
2018-02-19T00:55:02.347Z,32.85
2018-02-19T00:57:30.664Z,33.97
2018-02-19T00:59:59.008Z,34.78
2018-02-19T01:02:27.323Z,35.28
2018-02-19T01:04:54.881Z,34.23
2018-02-19T01:07:23.224Z,34.47
2018-02-19T01:09:51.536Z,33.32
2018-02-19T01:12:19.874Z,28.33
2018-02-19T01:14:48.196Z,32.45
2018-02-19T01:17:16.533Z,39.77
2018-02-19T01:19:44.843Z,31.97
2018-02-19T01:22:13.179Z,39.12
2018-02-19T01:24:41.501Z,34.22
2018-02-19T01:27:09.843Z,27.38
2018-02-19T01:29:38.163Z,32.80
2018-02-19T01:32:06.504Z,30.02
2018-02-19T01:34:34.818Z,32.35
2018-02-19T01:37:03.154Z,30.98
2018-02-19T01:39:31.466Z,29.82
2018-02-19T01:41:59.810Z,31.37
2018-02-19T01:44:28.130Z,32.88
2018-02-19T01:46:56.482Z,39.80
2018-02-19T01:49:24.803Z,28.65
2018-02-19T01:51:53.134Z,32.35
2018-02-19T01:54:21.449Z,28.23
2018-02-19T01:56:49.799Z,29.07
2018-02-19T01:59:18.110Z,27.58
2018-02-19T02:01:46.439Z,35.22
2018-02-19T02:04:14.764Z,38.77
2018-02-19T02:06:43.107Z,30.23
2018-02-19T02:09:11.416Z,40.48
2018-02-19T02:11:39.763Z,30.08
2018-02-19T02:14:08.077Z,31.03
2018-02-19T02:16:36.419Z,30.47
2018-02-19T02:19:04.752Z,32.57
2018-02-19T02:21:33.096Z,29.92
2018-02-19T02:24:01.415Z,28.37
2018-02-19T02:26:29.753Z,34.67
2018-02-19T02:28:58.080Z,34.93
2018-02-19T02:31:26.433Z,27.08
2018-02-19T02:33:54.757Z,30.27
2018-02-19T02:36:23.116Z,30.20
2018-02-19T02:38:51.448Z,37.53
2018-02-19T02:41:19.793Z,29.25
2018-02-19T02:43:48.121Z,29.45
2018-02-19T02:46:16.506Z,31.98
2018-02-19T02:48:44.820Z,30.92
2018-02-19T02:51:13.142Z,34.23
2018-02-19T02:53:41.475Z,35.70
2018-02-19T02:56:09.791Z,25.98
2018-02-19T02:58:38.131Z,34.60
2018-02-19T03:01:06.452Z,32.30
2018-02-19T03:03:34.800Z,29.10
2018-02-19T03:06:03.127Z,32.30
2018-02-19T03:08:31.468Z,34.05
2018-02-19T03:10:59.859Z,34.95
2018-02-19T03:13:28.207Z,34.95
2018-02-19T03:15:56.515Z,37.92
2018-02-19T03:18:24.863Z,31.20
2018-02-19T03:20:53.183Z,34.02
2018-02-19T03:23:21.533Z,60.07
2018-02-19T03:25:49.851Z,39.27
2018-02-19T03:28:18.195Z,30.70
2018-02-19T03:30:46.513Z,41.42
2018-02-19T03:33:14.852Z,42.58
2018-02-19T03:35:43.164Z,39.00
2018-02-19T03:38:11.501Z,31.85
2018-02-19T03:40:39.821Z,29.97
2018-02-19T03:43:08.164Z,32.28
2018-02-19T03:45:36.481Z,30.22
2018-02-19T03:48:04.847Z,34.42
2018-02-19T03:50:33.183Z,30.85
2018-02-19T03:53:01.523Z,34.60
2018-02-19T03:55:29.843Z,27.15
2018-02-19T03:57:58.191Z,36.90
2018-02-19T04:00:26.508Z,32.38
2018-02-19T04:02:54.840Z,34.75
2018-02-19T04:05:23.160Z,34.02
2018-02-19T04:07:51.495Z,34.65
2018-02-19T04:10:19.808Z,33.77
2018-02-19T04:12:48.148Z,40.52
2018-02-19T04:15:16.471Z,37.95
2018-02-19T04:17:44.844Z,34.23
2018-02-19T04:20:13.139Z,26.88
2018-02-19T04:22:41.476Z,28.67
2018-02-19T04:25:09.794Z,35.05
2018-02-19T04:27:38.141Z,37.48
2018-02-19T04:30:06.455Z,29.43
2018-02-19T04:32:34.790Z,33.47
2018-02-19T04:35:03.111Z,29.85
2018-02-19T04:37:31.439Z,29.98
2018-02-19T04:39:59.792Z,33.65
2018-02-19T04:42:28.113Z,29.95
2018-02-19T04:45:16.110Z,28.55
2018-02-19T04:47:43.685Z,33.23
2018-02-19T04:50:11.999Z,36.63
2018-02-19T04:52:40.327Z,33.77
2018-02-19T04:55:08.672Z,36.17
2018-02-19T04:57:36.992Z,41.85
2018-02-19T05:00:05.332Z,29.98
2018-02-19T05:02:33.655Z,36.18
2018-02-19T05:05:02.009Z,35.68
2018-02-19T05:07:30.332Z,34.27
2018-02-19T05:09:58.668Z,29.77
2018-02-19T05:12:26.991Z,34.48
2018-02-19T05:14:55.336Z,36.70
2018-02-19T05:17:23.652Z,42.55
2018-02-19T05:19:52.007Z,33.03
2018-02-19T05:22:20.332Z,32.47
2018-02-19T05:24:48.676Z,38.52
2018-02-19T05:27:17.003Z,39.97
2018-02-19T05:29:45.339Z,38.38
2018-02-19T05:32:13.653Z,40.28
2018-02-19T05:34:41.996Z,40.22
2018-02-19T05:37:10.331Z,40.45
2018-02-19T05:39:38.677Z,37.97
2018-02-19T05:42:06.999Z,35.62
2018-02-19T05:44:35.351Z,44.82
2018-02-19T05:47:03.679Z,49.15
2018-02-19T05:49:32.016Z,50.03
2018-02-19T05:52:00.332Z,42.82
2018-02-19T05:54:28.667Z,43.57
2018-02-19T05:56:56.980Z,49.00
2018-02-19T05:59:25.312Z,39.42
2018-02-19T06:01:53.627Z,37.85
2018-02-19T06:04:22.347Z,48.50
2018-02-19T06:06:50.660Z,39.70
2018-02-19T06:09:19.008Z,42.95
2018-02-19T06:11:47.330Z,46.80
2018-02-19T06:14:15.673Z,43.83
2018-02-19T06:16:43.987Z,51.68
2018-02-19T06:19:12.323Z,41.03
2018-02-19T06:21:40.648Z,43.77
2018-02-19T06:24:08.988Z,41.37
2018-02-19T06:26:37.312Z,41.50
2018-02-19T06:29:05.644Z,44.57
2018-02-19T06:31:33.963Z,39.90
2018-02-19T06:34:02.315Z,41.43
2018-02-19T06:36:30.635Z,39.98
2018-02-19T06:38:58.950Z,39.33
2018-02-19T06:41:27.289Z,43.85
2018-02-19T06:43:55.604Z,44.97
2018-02-19T06:46:23.948Z,38.22
2018-02-19T06:48:52.271Z,45.17
2018-02-19T06:51:20.628Z,46.80
2018-02-19T06:53:48.943Z,47.02
2018-02-19T06:56:17.283Z,36.08
2018-02-19T06:58:45.599Z,42.83
2018-02-19T07:01:13.944Z,39.77
2018-02-19T07:03:42.255Z,38.42
2018-02-19T07:06:10.595Z,48.10
2018-02-19T07:08:38.919Z,40.52
2018-02-19T07:11:07.263Z,40.80
2018-02-19T07:13:35.597Z,42.05
2018-02-19T07:16:03.939Z,43.02
2018-02-19T07:18:32.263Z,42.23
2018-02-19T07:21:00.607Z,42.93
2018-02-19T07:23:28.928Z,33.65
2018-02-19T07:25:57.273Z,43.97
2018-02-19T07:28:25.595Z,40.30
2018-02-19T07:30:53.935Z,47.97
2018-02-19T07:33:22.352Z,42.58
2018-02-19T07:35:50.754Z,39.18
2018-02-19T07:38:19.044Z,38.43
2018-02-19T07:40:47.407Z,40.28
2018-02-19T07:43:15.721Z,43.80
2018-02-19T07:45:44.166Z,38.33
2018-02-19T07:48:12.499Z,43.00
2018-02-19T07:50:40.847Z,48.22
2018-02-19T07:53:09.325Z,42.90
2018-02-19T07:55:37.682Z,45.92
2018-02-19T07:58:05.988Z,38.47
2018-02-19T08:00:34.319Z,43.38
2018-02-19T08:03:02.747Z,42.22
2018-02-19T08:05:31.089Z,36.88
2018-02-19T08:07:59.481Z,40.40
2018-02-19T08:10:27.827Z,39.68
2018-02-19T08:12:56.147Z,46.77
2018-02-19T08:15:24.477Z,48.45
2018-02-19T08:17:52.796Z,52.03
2018-02-19T08:20:21.134Z,53.13
2018-02-19T08:22:49.449Z,46.40
2018-02-19T08:25:17.802Z,45.78
2018-02-19T08:27:46.115Z,44.77
2018-02-19T08:30:14.437Z,64.53
2018-02-19T08:32:42.789Z,48.40
2018-02-19T08:35:11.105Z,47.58
2018-02-19T08:37:39.446Z,48.85
2018-02-19T08:40:07.754Z,48.43
2018-02-19T08:42:36.095Z,44.53
2018-02-19T08:45:04.453Z,46.47
2018-02-19T08:47:32.839Z,43.13
2018-02-19T08:50:01.161Z,53.32
2018-02-19T08:52:29.499Z,38.32
2018-02-19T08:54:57.811Z,37.45
2018-02-19T08:57:26.146Z,60.25
2018-02-19T08:59:54.496Z,49.03
2018-02-19T09:02:22.824Z,40.47
2018-02-19T09:04:51.143Z,39.50
2018-02-19T09:07:19.485Z,35.30
2018-02-19T09:09:47.803Z,41.75
2018-02-19T09:12:16.143Z,37.53
2018-02-19T09:14:44.467Z,37.50
2018-02-19T09:17:12.819Z,43.37
2018-02-19T09:19:41.468Z,44.38
2018-02-19T09:22:09.815Z,39.32
2018-02-19T09:24:38.132Z,42.38
2018-02-19T09:27:06.464Z,36.43
2018-02-19T09:29:34.775Z,34.27
2018-02-19T09:32:03.119Z,39.57
2018-02-19T09:34:31.435Z,43.20
2018-02-19T09:36:59.779Z,37.58
2018-02-19T09:39:28.112Z,35.47
2018-02-19T09:41:56.450Z,36.28
2018-02-19T09:44:24.752Z,37.25
2018-02-19T09:46:53.090Z,39.72
2018-02-19T09:49:21.412Z,40.28
2018-02-19T09:51:49.759Z,42.72
2018-02-19T09:54:18.076Z,38.32
2018-02-19T09:56:46.432Z,39.02
2018-02-19T09:59:14.755Z,38.60
2018-02-19T10:01:43.176Z,37.43
2018-02-19T10:04:11.511Z,40.30
2018-02-19T10:06:39.088Z,44.47
2018-02-19T10:09:07.408Z,39.20
2018-02-19T10:11:35.779Z,38.27
2018-02-19T10:14:04.161Z,39.05
2018-02-19T10:16:32.470Z,44.23
2018-02-19T10:19:00.811Z,42.82
2018-02-19T10:21:29.118Z,37.23
2018-02-19T10:23:57.458Z,45.67
2018-02-19T10:26:25.779Z,37.05
2018-02-19T10:28:54.115Z,38.73
2018-02-19T10:31:22.423Z,40.00
2018-02-19T10:33:50.761Z,43.12
2018-02-19T10:36:19.072Z,47.87
2018-02-19T10:38:47.412Z,41.00
2018-02-19T10:41:15.743Z,34.75
2018-02-19T10:43:44.074Z,39.60
2018-02-19T10:46:12.395Z,43.92
2018-02-19T10:48:40.727Z,41.95
2018-02-19T10:51:09.041Z,43.05
2018-02-19T10:53:37.376Z,45.05
2018-02-19T10:56:05.743Z,40.35
2018-02-19T10:58:34.044Z,51.22
2018-02-19T11:01:02.363Z,44.55
2018-02-19T11:03:30.705Z,50.67
2018-02-19T11:05:59.024Z,49.02
2018-02-19T11:08:27.368Z,48.28
2018-02-19T11:10:55.684Z,44.22
2018-02-19T11:13:23.382Z,40.50
2018-02-19T11:15:51.719Z,44.90
2018-02-19T11:18:20.066Z,42.37
2018-02-19T11:20:48.381Z,42.78
2018-02-19T11:23:16.723Z,50.63
2018-02-19T11:25:45.047Z,41.42
2018-02-19T11:28:13.389Z,38.37
2018-02-19T11:30:41.703Z,43.80
2018-02-19T11:33:10.036Z,41.42
2018-02-19T11:35:38.352Z,38.13
2018-02-19T11:38:06.702Z,38.38
2018-02-19T11:40:35.017Z,40.08
2018-02-19T11:43:03.363Z,41.97
2018-02-19T11:45:31.684Z,39.25
2018-02-19T11:48:00.023Z,41.78
2018-02-19T11:50:28.338Z,44.47
2018-02-19T11:52:56.702Z,43.13
2018-02-19T11:55:25.040Z,37.60
2018-02-19T11:57:53.350Z,35.65
2018-02-19T12:00:22.642Z,42.05
2018-02-19T12:02:50.964Z,45.05
2018-02-19T12:05:19.303Z,74.72
2018-02-19T12:07:47.629Z,45.57
2018-02-19T12:10:15.967Z,42.50
2018-02-19T12:12:44.291Z,40.35
2018-02-19T12:15:12.638Z,38.88
2018-02-19T12:17:40.974Z,42.13
2018-02-19T12:20:09.330Z,44.03
2018-02-19T12:22:37.650Z,42.43
2018-02-19T12:25:05.983Z,36.60
2018-02-19T12:27:34.303Z,39.03
2018-02-19T12:30:02.663Z,36.38
2018-02-19T12:32:30.987Z,41.83
2018-02-19T12:34:59.333Z,37.73
2018-02-19T12:37:27.663Z,41.85
2018-02-19T12:39:56.004Z,36.18
2018-02-19T12:42:24.335Z,39.63
2018-02-19T12:44:52.685Z,35.88
2018-02-19T12:47:21.000Z,36.72
2018-02-19T12:49:49.345Z,35.72
2018-02-19T12:52:17.677Z,32.18
2018-02-19T12:54:46.016Z,35.98
2018-02-19T12:57:14.335Z,35.13
2018-02-19T12:59:42.667Z,40.97
2018-02-19T13:02:10.988Z,41.80
2018-02-19T13:04:39.325Z,36.58
2018-02-19T13:07:07.659Z,43.60
2018-02-19T13:09:36.012Z,37.23
2018-02-19T13:12:04.322Z,37.00
2018-02-19T13:14:32.677Z,36.85
2018-02-19T13:17:01.001Z,37.53
2018-02-19T13:19:29.343Z,37.17
2018-02-19T13:21:57.656Z,36.95
2018-02-19T13:24:25.994Z,39.60
2018-02-19T13:26:54.308Z,39.15
2018-02-19T13:29:22.652Z,38.40
2018-02-19T13:31:50.986Z,34.17
2018-02-19T13:34:19.327Z,35.27
2018-02-19T13:36:47.644Z,32.93
2018-02-19T13:39:15.996Z,34.88
2018-02-19T13:41:44.315Z,37.35
2018-02-19T13:44:12.639Z,34.92
2018-02-19T13:46:40.982Z,30.43
2018-02-19T13:49:09.319Z,35.70
2018-02-19T13:51:37.659Z,35.62
2018-02-19T13:54:05.983Z,35.05
2018-02-19T13:56:34.345Z,31.58
2018-02-19T13:59:02.665Z,35.15
2018-02-19T14:01:31.016Z,35.57
2018-02-19T14:03:59.340Z,33.53
2018-02-19T14:06:27.687Z,32.97
2018-02-19T14:08:56.036Z,35.87
2018-02-19T14:11:24.360Z,31.78
2018-02-19T14:13:52.684Z,31.15
2018-02-19T14:16:21.031Z,29.90
2018-02-19T14:18:49.349Z,32.75
2018-02-19T14:21:17.687Z,31.63
2018-02-19T14:23:46.016Z,29.87
2018-02-19T14:26:14.436Z,28.20
2018-02-19T14:28:42.760Z,26.27
2018-02-19T14:31:11.125Z,29.72
2018-02-19T14:33:39.452Z,30.00
2018-02-19T14:36:07.858Z,32.10
2018-02-19T14:38:36.173Z,32.15
2018-02-19T14:41:04.513Z,30.67
2018-02-19T14:43:32.835Z,28.78
2018-02-19T14:46:01.175Z,31.33
2018-02-19T14:48:29.494Z,31.23
2018-02-19T14:50:57.836Z,29.22
2018-02-19T14:53:26.160Z,24.17
2018-02-19T14:55:54.510Z,31.45
2018-02-19T14:58:22.819Z,30.65
2018-02-19T15:00:51.168Z,30.85
2018-02-19T15:03:19.502Z,31.58
2018-02-19T15:05:47.836Z,30.82
2018-02-19T15:08:16.223Z,27.97
2018-02-19T15:10:44.563Z,28.78
2018-02-19T15:13:12.890Z,27.73
2018-02-19T15:15:41.233Z,28.45
2018-02-19T15:18:09.563Z,26.87
2018-02-19T15:20:37.914Z,26.42
2018-02-19T15:23:06.237Z,27.02
2018-02-19T15:25:34.570Z,29.60
2018-02-19T15:28:02.900Z,22.72
2018-02-19T15:30:31.234Z,31.70
2018-02-19T15:32:59.587Z,25.80
2018-02-19T15:35:27.904Z,24.80
2018-02-19T15:37:56.239Z,23.63
2018-02-19T15:40:24.552Z,29.60
2018-02-19T15:42:52.899Z,26.88
2018-02-19T15:45:21.228Z,31.28
2018-02-19T15:47:49.577Z,28.87
2018-02-19T15:50:17.949Z,22.47
2018-02-19T15:52:46.290Z,27.45
2018-02-19T15:55:14.617Z,25.27
2018-02-19T15:57:42.964Z,21.85
2018-02-19T16:00:11.279Z,23.33
2018-02-19T16:02:39.618Z,24.95
2018-02-19T16:05:07.937Z,29.45
2018-02-19T16:07:36.280Z,31.12
2018-02-19T16:10:04.600Z,30.00
2018-02-19T16:12:32.952Z,29.88
2018-02-19T16:15:01.267Z,22.47
2018-02-19T16:17:29.598Z,28.48
2018-02-19T16:19:57.915Z,29.78
2018-02-19T16:22:26.256Z,25.53
2018-02-19T16:24:54.572Z,25.73
2018-02-19T16:27:22.915Z,32.00
2018-02-19T16:29:51.246Z,27.97
2018-02-19T16:32:19.657Z,32.87
2018-02-19T16:34:47.978Z,38.05
2018-02-19T16:37:16.331Z,36.93
2018-02-19T16:39:44.646Z,40.42
2018-02-19T16:42:12.980Z,35.53
2018-02-19T16:44:41.312Z,41.60
2018-02-19T16:47:09.648Z,54.18
2018-02-19T16:49:37.966Z,48.37
2018-02-19T16:52:06.314Z,46.88
2018-02-19T16:54:34.632Z,46.15
2018-02-19T16:57:02.972Z,42.12
2018-02-19T16:59:31.292Z,46.33
2018-02-19T17:01:59.634Z,43.45
2018-02-19T17:04:27.956Z,47.45
2018-02-19T17:06:56.298Z,53.43
2018-02-19T17:09:24.611Z,45.20
2018-02-19T17:11:52.952Z,43.52
2018-02-19T17:14:21.366Z,41.35
2018-02-19T17:16:49.739Z,46.45
2018-02-19T17:19:18.084Z,51.40
2018-02-19T17:21:46.398Z,42.93
2018-02-19T17:24:14.746Z,48.35
2018-02-19T17:26:43.064Z,54.33
2018-02-19T17:29:11.410Z,42.47
2018-02-19T17:31:39.789Z,50.20
2018-02-19T17:34:08.094Z,41.75
2018-02-19T17:36:36.425Z,38.05
2018-02-19T17:39:04.759Z,30.93
2018-02-19T17:41:33.079Z,36.98
2018-02-19T17:44:01.458Z,40.28
2018-02-19T17:46:29.785Z,39.15
2018-02-19T17:48:58.132Z,32.05
2018-02-19T17:51:26.441Z,44.78
2018-02-19T17:53:54.786Z,40.45
2018-02-19T17:56:23.103Z,45.83
2018-02-19T17:58:51.455Z,37.62
2018-02-19T18:01:19.787Z,31.50
2018-02-19T18:03:48.133Z,29.33
2018-02-19T18:06:16.457Z,35.13
2018-02-19T18:08:44.851Z,33.73
2018-02-19T18:11:13.144Z,34.28
2018-02-19T18:13:41.484Z,36.32
2018-02-19T18:16:09.803Z,69.53
2018-02-19T18:18:38.155Z,46.50
2018-02-19T18:21:06.477Z,45.75
2018-02-19T18:23:34.819Z,38.60
2018-02-19T18:26:03.136Z,39.42
2018-02-19T18:28:31.524Z,40.00
2018-02-19T18:30:59.843Z,40.10
2018-02-19T18:33:28.211Z,41.22
2018-02-19T18:35:56.542Z,43.43
2018-02-19T18:38:24.874Z,38.63
2018-02-19T18:40:53.200Z,39.98
2018-02-19T18:43:21.531Z,47.70
2018-02-19T18:45:49.851Z,41.58
2018-02-19T18:48:18.191Z,38.73
2018-02-19T18:50:46.513Z,39.97
2018-02-19T18:53:14.892Z,55.87
2018-02-19T18:55:43.213Z,43.70
2018-02-19T18:58:11.547Z,46.02
2018-02-19T19:00:39.898Z,42.28
2018-02-19T19:03:08.250Z,40.83
2018-02-19T19:05:36.577Z,38.40
2018-02-19T19:08:16.789Z,40.65
2018-02-19T19:10:50.543Z,38.78
2018-02-19T19:13:18.876Z,38.17
2018-02-19T19:15:47.191Z,36.43
2018-02-19T19:18:15.511Z,32.27
2018-02-19T19:20:43.894Z,39.05
2018-02-19T19:23:12.223Z,36.78
2018-02-19T19:25:40.566Z,40.13
2018-02-19T19:28:08.883Z,40.07
2018-02-19T19:30:37.231Z,43.38
2018-02-19T19:33:05.557Z,39.88
2018-02-19T19:35:33.900Z,38.62
2018-02-19T19:38:02.220Z,45.23
2018-02-19T19:40:30.567Z,46.45
2018-02-19T19:42:58.898Z,38.52
2018-02-19T19:45:27.245Z,43.30
2018-02-19T19:47:55.573Z,49.73
2018-02-19T19:50:23.915Z,48.45
2018-02-19T19:52:52.236Z,41.75
2018-02-19T19:55:20.577Z,49.85
2018-02-19T19:57:48.894Z,47.15
2018-02-19T20:00:17.236Z,39.73
2018-02-19T20:02:45.559Z,39.82
2018-02-19T20:05:13.899Z,40.28
2018-02-19T20:07:42.230Z,43.15
2018-02-19T20:10:10.565Z,45.45
2018-02-19T20:15:13.727Z,38.75
2018-02-19T20:17:42.051Z,36.92
2018-02-19T20:20:10.383Z,40.92
2018-02-19T20:22:38.712Z,48.37
2018-02-19T20:25:07.052Z,44.08
2018-02-19T20:27:35.367Z,43.45
2018-02-19T20:30:03.712Z,43.22
2018-02-19T20:32:32.048Z,43.97
2018-02-19T20:35:00.388Z,41.80
2018-02-19T20:37:28.715Z,44.48
2018-02-19T20:39:57.394Z,51.75
2018-02-19T20:42:25.778Z,49.63
2018-02-19T20:44:54.136Z,60.17
2018-02-19T20:47:22.496Z,59.87
2018-02-19T20:49:50.832Z,59.57
2018-02-19T20:52:19.149Z,50.67
2018-02-19T20:54:47.508Z,54.25
2018-02-19T20:57:15.868Z,60.98
2018-02-19T20:59:44.184Z,45.23
2018-02-19T21:02:13.476Z,64.22
2018-02-19T21:04:42.825Z,48.85
2018-02-19T21:07:11.162Z,45.40
2018-02-19T21:09:39.474Z,48.58
2018-02-19T21:12:07.820Z,51.05
2018-02-19T21:14:36.129Z,50.35
2018-02-19T21:17:04.469Z,47.97
2018-02-19T21:19:32.798Z,45.88
2018-02-19T21:22:01.161Z,44.73
2018-02-19T21:24:29.466Z,40.82
2018-02-19T21:26:57.803Z,48.23
2018-02-19T21:29:26.123Z,45.90
2018-02-19T21:31:54.458Z,38.10
2018-02-19T21:34:22.772Z,43.83
2018-02-19T21:36:51.114Z,39.23
2018-02-19T21:39:19.431Z,44.63
2018-02-19T21:41:47.767Z,39.65
2018-02-19T21:44:16.087Z,42.10
2018-02-19T21:46:44.427Z,42.13
2018-02-19T21:49:12.744Z,42.50
2018-02-19T21:51:41.077Z,44.57
2018-02-19T21:54:09.392Z,43.68
2018-02-19T21:56:37.732Z,44.45
2018-02-19T21:59:06.065Z,40.83
2018-02-19T22:01:34.408Z,39.02
2018-02-19T22:04:02.728Z,40.73
2018-02-19T22:06:31.066Z,46.65
2018-02-19T22:08:59.383Z,39.58
2018-02-19T22:11:27.722Z,44.93
2018-02-19T22:13:56.048Z,40.80
2018-02-19T22:16:24.448Z,44.97
2018-02-19T22:18:52.744Z,42.43
2018-02-19T22:21:21.092Z,43.48
2018-02-19T22:23:49.406Z,43.80
2018-02-19T22:26:17.760Z,40.78
2018-02-19T22:28:46.088Z,39.48
2018-02-19T22:31:14.406Z,44.55
2018-02-19T22:33:42.748Z,44.67
2018-02-19T22:36:11.060Z,45.15
2018-02-19T22:38:39.395Z,45.32
2018-02-19T22:41:07.710Z,48.80
2018-02-19T22:43:36.043Z,47.87
2018-02-19T22:46:04.352Z,40.68
2018-02-19T22:48:32.687Z,38.93
2018-02-19T22:51:01.002Z,44.07
2018-02-19T22:53:29.333Z,36.63
2018-02-19T22:55:57.648Z,36.08
2018-02-19T22:58:26.004Z,39.05
2018-02-19T23:00:54.323Z,36.97
2018-02-19T23:03:22.666Z,41.00
2018-02-19T23:05:51.009Z,46.78
2018-02-19T23:08:19.351Z,37.45
2018-02-19T23:10:47.663Z,44.48
2018-02-19T23:13:16.016Z,38.20
2018-02-19T23:15:44.342Z,39.13
2018-02-19T23:18:12.691Z,43.60
2018-02-19T23:20:41.013Z,44.32
2018-02-19T23:23:09.351Z,44.15
2018-02-19T23:25:37.658Z,44.32
2018-02-19T23:28:05.999Z,44.70
2018-02-19T23:30:34.319Z,40.00
2018-02-19T23:33:02.655Z,39.97
2018-02-19T23:35:30.964Z,39.65
2018-02-19T23:37:59.303Z,42.80
2018-02-19T23:40:27.626Z,48.13
2018-02-19T23:42:55.963Z,39.17
2018-02-19T23:45:24.282Z,37.63
2018-02-19T23:47:52.623Z,34.17
2018-02-19T23:50:20.937Z,36.52
2018-02-19T23:52:49.276Z,44.35
2018-02-19T23:55:17.599Z,44.20
2018-02-19T23:57:45.937Z,47.82
